createdAt,value
2018-06-25T00:01:15.461Z,14.40
2018-06-25T00:03:44.611Z,14.20
2018-06-25T00:06:13.273Z,14.30
2018-06-25T00:08:41.989Z,14.40
2018-06-25T00:11:10.750Z,14.40
2018-06-25T00:13:39.444Z,14.40
2018-06-25T00:16:08.334Z,14.40
2018-06-25T00:18:36.961Z,14.40
2018-06-25T00:21:05.797Z,14.40
2018-06-25T00:23:34.565Z,14.40
2018-06-25T00:26:03.321Z,14.40
2018-06-25T00:28:32.944Z,14.30
2018-06-25T00:33:30.090Z,14.40
2018-06-25T00:35:58.877Z,14.40
2018-06-25T00:38:27.507Z,14.50
2018-06-25T00:40:56.272Z,14.40
2018-06-25T00:43:24.998Z,14.50
2018-06-25T00:45:53.647Z,14.30
2018-06-25T00:48:22.388Z,14.30
2018-06-25T00:50:51.243Z,14.30
2018-06-25T00:53:19.952Z,14.30
2018-06-25T00:55:48.724Z,14.30
2018-06-25T00:58:17.445Z,14.30
2018-06-25T01:00:46.142Z,14.20
2018-06-25T01:03:14.819Z,14.30
2018-06-25T01:05:43.520Z,14.30
2018-06-25T01:08:12.387Z,14.20
2018-06-25T01:10:41.473Z,14.30
2018-06-25T01:13:10.189Z,14.30
2018-06-25T01:15:39.089Z,14.30
2018-06-25T01:18:08.049Z,14.30
2018-06-25T01:20:36.713Z,14.30
2018-06-25T01:23:05.648Z,14.30
2018-06-25T01:25:34.474Z,14.30
2018-06-25T01:28:03.200Z,14.30
2018-06-25T01:30:32.238Z,14.30
2018-06-25T01:33:00.869Z,14.30
2018-06-25T01:35:29.497Z,14.30
2018-06-25T01:37:58.246Z,14.30
2018-06-25T01:40:26.952Z,14.20
2018-06-25T01:42:55.741Z,14.30
2018-06-25T01:45:24.517Z,14.30
2018-06-25T01:47:53.167Z,14.30
2018-06-25T01:52:50.417Z,14.30
2018-06-25T01:55:19.101Z,14.30
2018-06-25T01:57:48.177Z,14.30
2018-06-25T02:00:16.821Z,14.30
2018-06-25T02:02:45.677Z,14.30
2018-06-25T02:05:14.382Z,14.30
2018-06-25T02:07:43.080Z,14.30
2018-06-25T02:10:11.996Z,14.40
2018-06-25T02:12:40.692Z,14.40
2018-06-25T02:15:09.956Z,14.40
2018-06-25T02:17:38.976Z,14.40
2018-06-25T02:20:07.949Z,14.40
2018-06-25T02:22:36.653Z,14.40
2018-06-25T02:25:05.438Z,14.30
2018-06-25T02:27:34.164Z,14.20
2018-06-25T02:30:02.920Z,14.30
2018-06-25T02:32:31.607Z,14.30
2018-06-25T02:35:00.298Z,14.30
2018-06-25T02:37:29.157Z,14.40
2018-06-25T02:39:57.888Z,14.40
2018-06-25T02:42:26.566Z,14.40
2018-06-25T02:44:55.201Z,14.40
2018-06-25T02:47:24.541Z,14.30
2018-06-25T02:49:53.605Z,14.30
2018-06-25T02:52:22.393Z,14.30
2018-06-25T02:54:51.064Z,14.30
2018-06-25T02:57:19.751Z,14.40
2018-06-25T02:59:48.620Z,14.40
2018-06-25T03:02:17.301Z,14.30
2018-06-25T03:04:46.039Z,14.40
2018-06-25T03:07:14.760Z,14.30
2018-06-25T03:09:43.460Z,14.40
2018-06-25T03:12:12.157Z,14.30
2018-06-25T03:14:41.015Z,14.40
2018-06-25T03:17:09.807Z,14.40
2018-06-25T03:19:38.480Z,14.50
2018-06-25T03:22:07.096Z,14.40
2018-06-25T03:24:35.741Z,14.50
2018-06-25T03:27:04.654Z,14.40
2018-06-25T03:29:33.237Z,14.50
2018-06-25T03:32:02.024Z,14.50
2018-06-25T03:34:30.661Z,14.50
2018-06-25T03:36:59.414Z,14.40
2018-06-25T03:39:28.021Z,14.50
2018-06-25T03:41:56.628Z,14.50
2018-06-25T03:44:25.473Z,14.50
2018-06-25T03:46:54.400Z,14.60
2018-06-25T03:49:23.162Z,14.50
2018-06-25T03:51:51.917Z,14.50
2018-06-25T03:54:20.630Z,14.60
2018-06-25T03:56:49.440Z,14.60
2018-06-25T03:59:18.236Z,14.60
2018-06-25T04:01:47.080Z,14.60
2018-06-25T04:04:15.752Z,14.70
2018-06-25T04:06:44.446Z,14.70
2018-06-25T04:09:13.268Z,14.70
2018-06-25T04:11:42.214Z,14.80
2018-06-25T04:14:11.294Z,14.70
2018-06-25T04:16:39.989Z,14.80
2018-06-25T04:19:08.669Z,14.60
2018-06-25T04:21:37.973Z,14.70
2018-06-25T04:24:06.829Z,14.80
2018-06-25T04:26:35.485Z,14.80
2018-06-25T04:29:04.219Z,14.80
2018-06-25T04:31:32.894Z,14.80
2018-06-25T04:34:01.561Z,14.80
2018-06-25T04:36:30.432Z,14.80
2018-06-25T04:38:59.057Z,14.80
2018-06-25T04:41:27.741Z,14.80
2018-06-25T04:43:56.617Z,14.90
2018-06-25T04:46:25.348Z,14.90
2018-06-25T04:48:54.481Z,14.90
2018-06-25T04:51:24.625Z,14.90
2018-06-25T04:53:53.276Z,14.80
2018-06-25T04:56:22.275Z,14.80
2018-06-25T04:58:51.064Z,14.80
2018-06-25T05:01:19.695Z,14.80
2018-06-25T05:03:48.375Z,14.80
2018-06-25T05:06:17.152Z,14.80
2018-06-25T05:08:45.849Z,14.80
2018-06-25T05:11:14.505Z,14.80
2018-06-25T05:14:48.191Z,14.80
2018-06-25T05:17:16.912Z,14.80
2018-06-25T05:19:45.784Z,14.90
2018-06-25T05:22:14.443Z,14.90
2018-06-25T05:24:43.260Z,14.90
2018-06-25T05:27:11.964Z,14.90
2018-06-25T05:29:40.800Z,14.90
2018-06-25T05:32:09.757Z,14.80
2018-06-25T05:34:38.455Z,14.80
2018-06-25T05:37:07.216Z,14.90
2018-06-25T05:39:36.075Z,14.90
2018-06-25T05:42:06.029Z,15.00
2018-06-25T05:44:34.685Z,15.00
2018-06-25T05:47:03.404Z,15.10
2018-06-25T05:49:32.085Z,15.00
2018-06-25T05:52:00.861Z,15.10
2018-06-25T05:54:29.713Z,15.10
2018-06-25T05:56:58.478Z,15.10
2018-06-25T05:59:27.187Z,15.20
2018-06-25T06:01:55.858Z,15.30
2018-06-25T06:04:24.718Z,15.30
2018-06-25T06:06:53.446Z,15.30
2018-06-25T06:11:50.533Z,15.50
2018-06-25T06:14:19.227Z,15.50
2018-06-25T06:16:48.117Z,15.40
2018-06-25T06:19:16.850Z,15.40
2018-06-25T06:21:45.715Z,15.50
2018-06-25T06:24:14.376Z,15.60
2018-06-25T06:26:43.070Z,15.60
2018-06-25T06:29:11.845Z,15.60
2018-06-25T06:31:40.554Z,15.50
2018-06-25T06:34:09.243Z,15.40
2018-06-25T06:36:38.034Z,15.30
2018-06-25T06:39:11.009Z,15.50
2018-06-25T06:41:39.692Z,15.80
2018-06-25T06:44:08.368Z,15.90
2018-06-25T06:46:37.105Z,15.90
2018-06-25T06:49:05.974Z,16.10
2018-06-25T06:51:34.973Z,15.90
2018-06-25T06:54:04.150Z,16.10
2018-06-25T06:56:33.366Z,16.10
2018-06-25T06:59:02.602Z,16.30
2018-06-25T07:01:31.570Z,16.70
2018-06-25T07:04:00.210Z,16.70
2018-06-25T07:06:28.857Z,16.70
2018-06-25T07:08:57.589Z,16.80
2018-06-25T07:11:26.306Z,16.70
2018-06-25T07:13:54.993Z,16.80
2018-06-25T07:16:23.739Z,16.90
2018-06-25T07:18:52.978Z,17.10
2018-06-25T07:21:21.641Z,17.40
2018-06-25T07:23:50.344Z,17.40
2018-06-25T07:26:23.943Z,17.50
2018-06-25T07:28:54.643Z,17.40
2018-06-25T07:31:23.768Z,17.40
2018-06-25T07:33:53.506Z,17.70
2018-06-25T07:36:22.217Z,17.60
2018-06-25T07:38:50.992Z,17.90
2018-06-25T07:41:19.955Z,17.80
2018-06-25T07:43:48.701Z,17.60
2018-06-25T07:46:17.536Z,17.60
2018-06-25T07:48:46.447Z,17.30
2018-06-25T07:51:15.220Z,17.10
2018-06-25T07:53:44.105Z,16.80
2018-06-25T07:56:12.913Z,16.80
2018-06-25T07:58:41.681Z,16.90
2018-06-25T08:01:10.499Z,17.30
2018-06-25T08:03:39.402Z,17.60
2018-06-25T08:06:08.324Z,17.60
2018-06-25T08:08:37.063Z,17.80
2018-06-25T08:11:05.873Z,17.90
2018-06-25T08:13:34.693Z,17.60
2018-06-25T08:16:03.401Z,17.70
2018-06-25T08:18:32.061Z,17.60
2018-06-25T08:21:00.797Z,17.40
2018-06-25T08:23:29.654Z,17.30
2018-06-25T08:25:58.884Z,17.10
2018-06-25T08:28:27.555Z,17.20
2018-06-25T08:30:56.286Z,17.20
2018-06-25T08:33:24.999Z,16.90
2018-06-25T08:35:54.330Z,16.90
2018-06-25T08:38:23.123Z,16.70
2018-06-25T08:40:51.765Z,16.70
2018-06-25T08:43:20.490Z,16.50
2018-06-25T08:45:49.193Z,16.60
2018-06-25T08:48:17.892Z,16.60
2018-06-25T08:50:46.568Z,16.60
2018-06-25T08:53:15.177Z,16.60
2018-06-25T08:55:43.945Z,16.60
2018-06-25T08:58:12.636Z,16.60
2018-06-25T09:00:41.282Z,16.60
2018-06-25T09:03:10.028Z,16.50
2018-06-25T09:05:38.696Z,16.50
2018-06-25T09:08:07.460Z,16.60
2018-06-25T09:10:36.365Z,16.70
2018-06-25T09:13:05.346Z,16.70
2018-06-25T09:15:34.415Z,17.00
2018-06-25T09:18:03.127Z,17.00
2018-06-25T09:20:32.240Z,16.90
2018-06-25T09:23:01.078Z,17.00
2018-06-25T09:25:29.761Z,17.10
2018-06-25T09:28:04.817Z,17.20
2018-06-25T09:30:33.728Z,17.20
2018-06-25T09:33:02.800Z,17.40
2018-06-25T09:35:31.715Z,17.50
2018-06-25T09:38:00.429Z,17.30
2018-06-25T09:40:29.121Z,17.00
2018-06-25T09:42:57.752Z,17.00
2018-06-25T09:45:26.412Z,17.00
2018-06-25T09:47:55.063Z,17.10
2018-06-25T09:50:23.764Z,17.10
2018-06-25T09:52:52.365Z,17.10
2018-06-25T09:55:21.205Z,17.20
2018-06-25T09:57:50.016Z,17.20
2018-06-25T10:01:25.434Z,17.30
2018-06-25T10:03:54.148Z,17.20
2018-06-25T10:06:22.821Z,17.30
2018-06-25T10:08:51.510Z,17.30
2018-06-25T10:11:20.617Z,17.20
2018-06-25T10:13:49.456Z,17.10
2018-06-25T10:16:18.123Z,17.20
2018-06-25T10:18:46.885Z,17.20
2018-06-25T10:21:15.617Z,17.30
2018-06-25T10:23:44.240Z,17.40
2018-06-25T10:26:13.037Z,17.40
2018-06-25T10:28:41.687Z,17.50
2018-06-25T10:31:10.718Z,17.60
2018-06-25T10:33:39.389Z,17.50
2018-06-25T10:36:08.185Z,17.70
2018-06-25T10:38:36.916Z,17.80
2018-06-25T10:41:05.565Z,17.80
2018-06-25T10:43:34.354Z,17.70
2018-06-25T10:46:03.181Z,17.70
2018-06-25T10:48:31.896Z,17.80
2018-06-25T10:51:00.640Z,18.00
2018-06-25T10:53:29.605Z,18.00
2018-06-25T10:55:58.492Z,18.00
2018-06-25T10:58:27.193Z,17.90
2018-06-25T11:00:56.336Z,17.70
2018-06-25T11:03:25.164Z,17.70
2018-06-25T11:05:54.242Z,17.70
2018-06-25T11:08:22.888Z,17.80
2018-06-25T11:10:51.690Z,17.90
2018-06-25T11:15:48.931Z,17.80
2018-06-25T11:18:17.606Z,17.90
2018-06-25T11:20:46.497Z,17.90
2018-06-25T11:23:15.413Z,17.90
2018-06-25T11:28:12.760Z,18.40
2018-06-25T11:30:41.506Z,18.30
2018-06-25T11:33:10.321Z,18.40
2018-06-25T11:35:39.212Z,18.50
2018-06-25T11:38:08.012Z,18.50
2018-06-25T11:40:36.833Z,18.40
2018-06-25T11:43:05.812Z,18.50
2018-06-25T11:45:34.567Z,18.50
2018-06-25T11:48:03.196Z,18.50
2018-06-25T11:50:31.872Z,18.80
2018-06-25T11:53:01.479Z,18.90
2018-06-25T11:55:30.271Z,19.10
2018-06-25T11:57:59.072Z,19.20
2018-06-25T12:00:27.723Z,19.40
2018-06-25T12:02:56.698Z,19.30
2018-06-25T12:05:25.468Z,19.40
2018-06-25T12:07:54.152Z,19.30
2018-06-25T12:10:23.177Z,19.20
2018-06-25T12:12:51.860Z,19.00
2018-06-25T12:15:20.644Z,19.00
2018-06-25T12:17:49.468Z,19.00
2018-06-25T12:20:18.386Z,19.00
2018-06-25T12:22:47.114Z,19.20
2018-06-25T12:25:15.752Z,19.20
2018-06-25T12:27:44.438Z,19.20
2018-06-25T12:30:13.200Z,19.30
2018-06-25T12:32:41.858Z,19.30
2018-06-25T12:35:10.668Z,19.40
2018-06-25T12:37:39.527Z,19.40
2018-06-25T12:40:08.172Z,19.40
2018-06-25T12:42:36.808Z,19.40
2018-06-25T12:45:05.914Z,19.40
2018-06-25T12:47:34.649Z,19.30
2018-06-25T12:50:03.638Z,19.40
2018-06-25T12:52:32.328Z,19.30
2018-06-25T12:55:01.273Z,19.40
2018-06-25T12:57:30.128Z,19.40
2018-06-25T12:59:58.952Z,19.60
2018-06-25T13:02:27.842Z,19.70
2018-06-25T13:04:56.581Z,19.80
2018-06-25T13:07:25.542Z,19.60
2018-06-25T13:09:54.237Z,19.60
2018-06-25T13:12:23.314Z,19.60
2018-06-25T13:14:52.121Z,19.60
2018-06-25T13:17:20.832Z,19.60
2018-06-25T13:19:49.618Z,19.80
2018-06-25T13:22:18.496Z,19.80
2018-06-25T13:24:47.380Z,19.80
2018-06-25T13:27:16.243Z,19.90
2018-06-25T13:29:45.254Z,20.00
2018-06-25T13:32:13.988Z,20.00
2018-06-25T13:34:42.616Z,20.00
2018-06-25T13:37:11.357Z,20.00
2018-06-25T13:39:40.242Z,19.80
2018-06-25T13:42:08.873Z,19.90
2018-06-25T13:44:37.769Z,19.80
2018-06-25T13:47:06.560Z,19.90
2018-06-25T13:49:35.263Z,20.00
2018-06-25T13:52:04.081Z,20.10
2018-06-25T13:57:01.274Z,20.50
2018-06-25T13:59:29.911Z,20.40
2018-06-25T14:01:58.598Z,20.30
2018-06-25T14:04:27.353Z,20.20
2018-06-25T14:06:56.154Z,20.50
2018-06-25T14:09:25.012Z,20.60
2018-06-25T14:11:53.926Z,20.60
2018-06-25T14:14:22.717Z,20.50
2018-06-25T14:16:51.593Z,20.50
2018-06-25T14:19:20.305Z,20.50
2018-06-25T14:21:48.930Z,20.50
2018-06-25T14:24:23.181Z,20.50
2018-06-25T14:26:51.969Z,20.50
2018-06-25T14:29:26.038Z,20.50
2018-06-25T14:31:58.916Z,20.50
2018-06-25T14:34:28.084Z,20.50
2018-06-25T14:36:56.813Z,20.50
2018-06-25T14:39:25.481Z,20.50
2018-06-25T14:41:54.244Z,20.70
2018-06-25T14:44:22.891Z,20.70
2018-06-25T14:49:19.956Z,20.60
2018-06-25T14:51:48.778Z,20.50
2018-06-25T14:54:17.445Z,20.50
2018-06-25T14:56:46.390Z,20.50
2018-06-25T14:59:15.477Z,20.50
2018-06-25T15:01:44.292Z,20.70
2018-06-25T15:04:13.098Z,20.70
2018-06-25T15:06:41.927Z,20.70
2018-06-25T15:09:12.204Z,20.60
2018-06-25T15:11:40.865Z,20.60
2018-06-25T15:14:09.538Z,20.50
2018-06-25T15:16:38.244Z,20.40
2018-06-25T15:19:07.076Z,20.50
2018-06-25T15:21:35.906Z,20.60
2018-06-25T15:24:04.702Z,20.60
2018-06-25T15:26:33.391Z,20.80
2018-06-25T15:29:02.112Z,20.80
2018-06-25T15:31:31.039Z,20.80
2018-06-25T15:33:59.677Z,20.80
2018-06-25T15:38:56.651Z,20.70
2018-06-25T15:41:25.314Z,20.60
2018-06-25T15:43:54.057Z,20.60
2018-06-25T15:46:22.682Z,20.60
2018-06-25T15:48:51.339Z,20.50
2018-06-25T15:51:20.028Z,20.70
2018-06-25T15:53:48.730Z,20.60
2018-06-25T15:56:17.367Z,20.60
2018-06-25T15:58:46.925Z,20.60
2018-06-25T16:01:15.809Z,20.60
2018-06-25T16:03:44.566Z,20.60
2018-06-25T16:06:13.321Z,20.50
2018-06-25T16:11:10.848Z,20.50
2018-06-25T16:13:39.735Z,20.50
2018-06-25T16:16:08.373Z,20.50
2018-06-25T16:18:37.052Z,20.50
2018-06-25T16:21:05.877Z,20.60
2018-06-25T16:23:34.784Z,20.50
2018-06-25T16:26:03.500Z,20.50
2018-06-25T16:28:32.187Z,20.50
2018-06-25T16:31:01.665Z,20.40
2018-06-25T16:33:31.263Z,20.40
2018-06-25T16:36:00.006Z,20.30
2018-06-25T16:38:29.163Z,20.30
2018-06-25T16:40:57.955Z,20.30
2018-06-25T16:43:26.618Z,20.40
2018-06-25T16:45:55.399Z,20.50
2018-06-25T16:48:24.349Z,20.50
2018-06-25T16:50:53.044Z,20.50
2018-06-25T16:53:21.824Z,20.40
2018-06-25T16:55:50.537Z,20.40
2018-06-25T16:58:19.636Z,20.30
2018-06-25T17:00:48.388Z,20.30
2018-06-25T17:03:17.177Z,20.30
2018-06-25T17:05:45.867Z,20.30
2018-06-25T17:08:14.758Z,20.30
2018-06-25T17:10:43.527Z,20.20
2018-06-25T17:13:12.342Z,20.20
2018-06-25T17:15:41.099Z,20.20
2018-06-25T17:18:09.793Z,20.10
2018-06-25T17:20:38.520Z,20.20
2018-06-25T17:23:07.493Z,20.20
2018-06-25T17:25:36.157Z,20.10
2018-06-25T17:28:05.026Z,20.10
2018-06-25T17:30:33.921Z,20.20
2018-06-25T17:33:02.720Z,20.20
2018-06-25T17:35:31.506Z,20.20
2018-06-25T17:38:00.310Z,20.20
2018-06-25T17:40:29.161Z,20.20
2018-06-25T17:42:58.522Z,20.20
2018-06-25T17:45:27.304Z,20.20
2018-06-25T17:47:55.959Z,20.20
2018-06-25T17:50:24.674Z,20.20
2018-06-25T17:52:53.494Z,20.10
2018-06-25T17:57:51.920Z,20.10
2018-06-25T18:00:20.845Z,20.00
2018-06-25T18:02:49.721Z,19.90
2018-06-25T18:05:18.364Z,19.90
2018-06-25T18:07:47.093Z,19.80
2018-06-25T18:10:16.052Z,19.80
2018-06-25T18:12:44.854Z,19.70
2018-06-25T18:15:13.787Z,19.70
2018-06-25T18:17:42.562Z,19.60
2018-06-25T18:20:11.378Z,19.60
2018-06-25T18:22:40.131Z,19.60
2018-06-25T18:25:08.922Z,19.50
2018-06-25T18:27:37.589Z,19.50
2018-06-25T18:30:06.795Z,19.50
2018-06-25T18:32:35.828Z,19.40
2018-06-25T18:35:04.754Z,19.40
2018-06-25T18:37:33.585Z,19.30
2018-06-25T18:40:02.510Z,19.30
2018-06-25T18:42:31.168Z,19.20
2018-06-25T18:44:59.933Z,19.20
2018-06-25T18:47:28.736Z,19.10
2018-06-25T18:49:57.941Z,19.10
2018-06-25T18:52:26.733Z,19.10
2018-06-25T18:54:55.546Z,19.00
2018-06-25T18:57:24.404Z,19.00
2018-06-25T18:59:53.078Z,19.00
2018-06-25T19:02:21.749Z,19.00
2018-06-25T19:04:50.452Z,19.00
2018-06-25T19:07:19.186Z,18.90
2018-06-25T19:09:48.244Z,18.80
2018-06-25T19:12:16.979Z,18.80
2018-06-25T19:14:45.704Z,18.70
2018-06-25T19:17:14.520Z,18.70
2018-06-25T19:19:43.304Z,18.60
2018-06-25T19:22:12.019Z,18.60
2018-06-25T19:27:09.523Z,18.60
2018-06-25T19:29:38.364Z,18.60
2018-06-25T19:32:07.158Z,18.60
2018-06-25T19:34:35.961Z,18.50
2018-06-25T19:37:04.720Z,18.40
2018-06-25T19:39:33.541Z,18.30
2018-06-25T19:42:02.317Z,18.30
2018-06-25T19:46:59.465Z,18.10
2018-06-25T19:49:28.277Z,18.10
2018-06-25T19:51:56.978Z,18.10
2018-06-25T19:54:25.627Z,18.00
2018-06-25T19:56:54.302Z,18.00
2018-06-25T19:59:23.057Z,18.00
2018-06-25T20:04:20.163Z,17.80
2018-06-25T20:06:48.976Z,17.80
2018-06-25T20:09:17.646Z,17.80
2018-06-25T20:11:46.366Z,17.80
2018-06-25T20:14:15.057Z,17.70
2018-06-25T20:16:43.834Z,17.70
2018-06-25T20:19:12.544Z,17.70
2018-06-25T20:21:41.490Z,17.70
2018-06-25T20:24:10.206Z,17.70
2018-06-25T20:26:39.056Z,17.70
2018-06-25T20:29:07.810Z,17.70
2018-06-25T20:31:36.608Z,17.60
2018-06-25T20:34:05.625Z,17.70
2018-06-25T20:36:34.345Z,17.70
2018-06-25T20:39:03.193Z,17.60
2018-06-25T20:41:31.853Z,17.70
2018-06-25T20:46:29.020Z,17.70
2018-06-25T20:48:57.688Z,17.70
2018-06-25T20:51:26.395Z,17.70
2018-06-25T20:53:55.029Z,17.60
2018-06-25T20:56:23.715Z,17.60
2018-06-25T20:58:52.512Z,17.50
2018-06-25T21:01:21.378Z,17.50
2018-06-25T21:03:50.276Z,17.40
2018-06-25T21:06:19.009Z,17.40
2018-06-25T21:08:47.970Z,17.30
2018-06-25T21:11:16.665Z,17.30
2018-06-25T21:13:45.339Z,17.30
2018-06-25T21:16:14.112Z,17.30
2018-06-25T21:18:42.888Z,17.30
2018-06-25T21:21:11.762Z,17.30
2018-06-25T21:23:40.465Z,17.30
2018-06-25T21:26:09.213Z,17.30
2018-06-25T21:28:37.910Z,17.30
2018-06-25T21:31:07.457Z,17.30
2018-06-25T21:33:36.160Z,17.30
2018-06-25T21:36:05.031Z,17.30
2018-06-25T21:38:33.600Z,17.30
2018-06-25T21:41:02.292Z,17.40
2018-06-25T21:43:31.155Z,17.40
2018-06-25T21:45:59.857Z,17.40
2018-06-25T21:48:28.488Z,17.40
2018-06-25T21:50:57.196Z,17.40
2018-06-25T21:53:25.974Z,17.40
2018-06-25T21:55:54.656Z,17.40
2018-06-25T21:58:23.411Z,17.50
2018-06-25T22:00:53.176Z,17.50
2018-06-25T22:03:22.033Z,17.50
2018-06-25T22:05:51.120Z,17.50
2018-06-25T22:08:19.956Z,17.50
2018-06-25T22:10:48.616Z,17.50
2018-06-25T22:13:17.415Z,17.60
2018-06-25T22:15:46.084Z,17.60
2018-06-25T22:18:14.866Z,17.50
2018-06-25T22:20:43.526Z,17.50
2018-06-25T22:23:12.196Z,17.50
2018-06-25T22:25:40.930Z,17.50
2018-06-25T22:28:09.706Z,17.50
2018-06-25T22:30:38.597Z,17.60
2018-06-25T22:33:07.412Z,17.50
2018-06-25T22:35:36.100Z,17.50
2018-06-25T22:38:04.876Z,17.50
2018-06-25T22:40:33.773Z,17.50
2018-06-25T22:43:02.401Z,17.50
2018-06-25T22:47:59.564Z,17.50
2018-06-25T22:50:28.396Z,17.50
2018-06-25T22:52:57.132Z,17.40
2018-06-25T22:55:32.111Z,17.40
2018-06-25T22:58:01.168Z,17.50
2018-06-25T23:00:30.005Z,17.40
2018-06-25T23:02:58.773Z,17.30
2018-06-25T23:05:27.572Z,17.30
2018-06-25T23:07:56.238Z,17.20
2018-06-25T23:10:25.457Z,17.20
2018-06-25T23:12:54.590Z,17.20
2018-06-25T23:15:23.368Z,17.10
2018-06-25T23:17:52.044Z,17.00
2018-06-25T23:20:20.789Z,17.10
2018-06-25T23:22:53.829Z,17.00
2018-06-25T23:25:24.136Z,17.00
2018-06-25T23:27:52.905Z,17.10
2018-06-25T23:30:22.330Z,17.00
2018-06-25T23:32:51.117Z,17.00
2018-06-25T23:35:19.926Z,17.00
2018-06-25T23:37:48.661Z,17.00
2018-06-25T23:40:17.405Z,17.00
2018-06-25T23:42:46.117Z,17.00
2018-06-25T23:45:14.892Z,16.90
2018-06-25T23:47:43.643Z,16.90
2018-06-25T23:50:12.482Z,16.90
2018-06-25T23:52:41.184Z,16.80
2018-06-25T23:55:09.837Z,16.80
2018-06-25T23:57:38.612Z,16.70
